sensor_id;sensor_type;location;lat;lon;timestamp;temperature;humidity
68511;SHT31;55512;50.102;19.958;2024-01-27T00:01:20;6.16;86.05
68511;SHT31;55512;50.102;19.958;2024-01-27T00:04:09;5.84;86.39
68511;SHT31;55512;50.102;19.958;2024-01-27T00:07:15;5.75;84.65
68511;SHT31;55512;50.102;19.958;2024-01-27T00:13:14;5.77;82.93
68511;SHT31;55512;50.102;19.958;2024-01-27T00:16:03;5.77;81.70
68511;SHT31;55512;50.102;19.958;2024-01-27T00:18:47;5.73;81.75
68511;SHT31;55512;50.102;19.958;2024-01-27T00:21:18;5.56;81.61
68511;SHT31;55512;50.102;19.958;2024-01-27T00:24:22;5.65;80.24
68511;SHT31;55512;50.102;19.958;2024-01-27T00:26:53;5.61;80.27
68511;SHT31;55512;50.102;19.958;2024-01-27T00:29:25;5.63;80.27
68511;SHT31;55512;50.102;19.958;2024-01-27T00:31:50;5.53;80.16
68511;SHT31;55512;50.102;19.958;2024-01-27T00:34:29;5.45;78.96
68511;SHT31;55512;50.102;19.958;2024-01-27T00:38:07;5.44;78.23
68511;SHT31;55512;50.102;19.958;2024-01-27T00:40:48;5.45;77.17
68511;SHT31;55512;50.102;19.958;2024-01-27T00:43:23;5.44;75.38
68511;SHT31;55512;50.102;19.958;2024-01-27T00:46:29;5.62;73.06
68511;SHT31;55512;50.102;19.958;2024-01-27T00:49:16;5.83;73.01
68511;SHT31;55512;50.102;19.958;2024-01-27T00:51:59;5.83;72.54
68511;SHT31;55512;50.102;19.958;2024-01-27T00:57:27;5.84;73.32
68511;SHT31;55512;50.102;19.958;2024-01-27T01:03:07;5.82;73.98
68511;SHT31;55512;50.102;19.958;2024-01-27T01:05:38;5.75;74.61
68511;SHT31;55512;50.102;19.958;2024-01-27T01:08:34;5.63;74.92
68511;SHT31;55512;50.102;19.958;2024-01-27T01:11:54;5.52;74.44
68511;SHT31;55512;50.102;19.958;2024-01-27T01:17:41;5.53;73.98
68511;SHT31;55512;50.102;19.958;2024-01-27T01:20:10;5.56;73.85
68511;SHT31;55512;50.102;19.958;2024-01-27T01:22:37;5.54;73.95
68511;SHT31;55512;50.102;19.958;2024-01-27T01:25:11;5.55;74.37
68511;SHT31;55512;50.102;19.958;2024-01-27T01:27:40;5.54;74.34
68511;SHT31;55512;50.102;19.958;2024-01-27T01:30:08;5.51;74.16
68511;SHT31;55512;50.102;19.958;2024-01-27T01:32:47;5.50;73.94
68511;SHT31;55512;50.102;19.958;2024-01-27T01:35:50;5.51;73.95
68511;SHT31;55512;50.102;19.958;2024-01-27T01:38:18;5.41;74.04
68511;SHT31;55512;50.102;19.958;2024-01-27T01:40:47;5.37;74.00
68511;SHT31;55512;50.102;19.958;2024-01-27T01:43:24;5.46;73.48
68511;SHT31;55512;50.102;19.958;2024-01-27T01:46:14;5.58;73.19
68511;SHT31;55512;50.102;19.958;2024-01-27T01:48:47;5.30;73.80
68511;SHT31;55512;50.102;19.958;2024-01-27T01:51:35;5.27;74.02
68511;SHT31;55512;50.102;19.958;2024-01-27T01:54:04;5.27;73.99
68511;SHT31;55512;50.102;19.958;2024-01-27T01:56:56;5.27;73.69
68511;SHT31;55512;50.102;19.958;2024-01-27T01:59:26;5.25;73.34
68511;SHT31;55512;50.102;19.958;2024-01-27T02:02:18;5.20;72.97
68511;SHT31;55512;50.102;19.958;2024-01-27T02:04:43;5.18;72.77
68511;SHT31;55512;50.102;19.958;2024-01-27T02:07:13;5.20;72.76
68511;SHT31;55512;50.102;19.958;2024-01-27T02:09:40;5.21;72.68
68511;SHT31;55512;50.102;19.958;2024-01-27T02:12:06;5.15;73.14
68511;SHT31;55512;50.102;19.958;2024-01-27T02:14:32;5.05;73.49
68511;SHT31;55512;50.102;19.958;2024-01-27T02:17:07;4.97;73.62
68511;SHT31;55512;50.102;19.958;2024-01-27T02:19:38;4.88;73.78
68511;SHT31;55512;50.102;19.958;2024-01-27T02:22:23;4.76;74.19
68511;SHT31;55512;50.102;19.958;2024-01-27T02:24:49;4.71;74.02
68511;SHT31;55512;50.102;19.958;2024-01-27T02:27:29;4.64;74.05
68511;SHT31;55512;50.102;19.958;2024-01-27T02:30:28;4.64;74.08
68511;SHT31;55512;50.102;19.958;2024-01-27T02:36:37;4.94;72.17
68511;SHT31;55512;50.102;19.958;2024-01-27T02:39:33;4.99;71.53
68511;SHT31;55512;50.102;19.958;2024-01-27T02:42:35;5.04;71.00
68511;SHT31;55512;50.102;19.958;2024-01-27T02:45:14;5.08;69.89
68511;SHT31;55512;50.102;19.958;2024-01-27T02:47:59;5.20;69.32
68511;SHT31;55512;50.102;19.958;2024-01-27T02:51:03;5.22;69.53
68511;SHT31;55512;50.102;19.958;2024-01-27T02:53:31;5.22;69.90
68511;SHT31;55512;50.102;19.958;2024-01-27T02:55:57;5.21;70.43
68511;SHT31;55512;50.102;19.958;2024-01-27T02:58:25;5.18;70.87
68511;SHT31;55512;50.102;19.958;2024-01-27T03:00:54;5.17;71.10
68511;SHT31;55512;50.102;19.958;2024-01-27T03:03:25;5.15;71.02
68511;SHT31;55512;50.102;19.958;2024-01-27T03:05:59;5.14;70.37
68511;SHT31;55512;50.102;19.958;2024-01-27T03:08:25;5.16;69.41
68511;SHT31;55512;50.102;19.958;2024-01-27T03:10:52;5.22;67.95
68511;SHT31;55512;50.102;19.958;2024-01-27T03:13:20;5.30;66.63
68511;SHT31;55512;50.102;19.958;2024-01-27T03:18:23;5.47;63.57
68511;SHT31;55512;50.102;19.958;2024-01-27T03:20:58;5.56;63.81
68511;SHT31;55512;50.102;19.958;2024-01-27T03:23:24;5.58;64.27
68511;SHT31;55512;50.102;19.958;2024-01-27T03:25:50;5.32;65.20
68511;SHT31;55512;50.102;19.958;2024-01-27T03:28:19;5.24;66.25
68511;SHT31;55512;50.102;19.958;2024-01-27T03:30:47;5.21;66.14
68511;SHT31;55512;50.102;19.958;2024-01-27T03:33:21;5.20;66.95
68511;SHT31;55512;50.102;19.958;2024-01-27T03:36:10;5.15;67.37
68511;SHT31;55512;50.102;19.958;2024-01-27T03:38:47;5.16;67.20
68511;SHT31;55512;50.102;19.958;2024-01-27T03:41:16;5.18;67.13
68511;SHT31;55512;50.102;19.958;2024-01-27T03:43:55;5.17;67.53
68511;SHT31;55512;50.102;19.958;2024-01-27T03:46:44;5.18;67.95
68511;SHT31;55512;50.102;19.958;2024-01-27T03:49:19;5.06;68.95
68511;SHT31;55512;50.102;19.958;2024-01-27T03:51:58;4.90;69.13
68511;SHT31;55512;50.102;19.958;2024-01-27T03:54:27;4.89;69.30
68511;SHT31;55512;50.102;19.958;2024-01-27T03:57:03;4.85;69.24
68511;SHT31;55512;50.102;19.958;2024-01-27T04:00:07;4.84;69.08
68511;SHT31;55512;50.102;19.958;2024-01-27T04:03:00;4.89;67.73
68511;SHT31;55512;50.102;19.958;2024-01-27T04:05:47;4.91;67.82
68511;SHT31;55512;50.102;19.958;2024-01-27T04:11:24;4.94;67.50
68511;SHT31;55512;50.102;19.958;2024-01-27T04:20:16;4.85;68.52
68511;SHT31;55512;50.102;19.958;2024-01-27T04:23:19;4.75;68.56
68511;SHT31;55512;50.102;19.958;2024-01-27T04:25:51;4.73;68.90
68511;SHT31;55512;50.102;19.958;2024-01-27T04:29:09;4.73;68.48
68511;SHT31;55512;50.102;19.958;2024-01-27T04:32:49;4.76;67.79
68511;SHT31;55512;50.102;19.958;2024-01-27T04:51:28;4.70;71.27
68511;SHT31;55512;50.102;19.958;2024-01-27T04:54:21;4.64;72.43
68511;SHT31;55512;50.102;19.958;2024-01-27T04:57:19;4.56;73.45
68511;SHT31;55512;50.102;19.958;2024-01-27T04:59:57;4.49;73.75
68511;SHT31;55512;50.102;19.958;2024-01-27T05:02:58;4.39;74.24
68511;SHT31;55512;50.102;19.958;2024-01-27T05:06:11;4.35;74.51
68511;SHT31;55512;50.102;19.958;2024-01-27T05:09:07;4.35;74.70
68511;SHT31;55512;50.102;19.958;2024-01-27T05:12:03;4.33;74.73
68511;SHT31;55512;50.102;19.958;2024-01-27T05:14:42;4.29;74.97
68511;SHT31;55512;50.102;19.958;2024-01-27T05:17:15;4.26;75.12
68511;SHT31;55512;50.102;19.958;2024-01-27T05:19:44;4.25;75.46
68511;SHT31;55512;50.102;19.958;2024-01-27T05:22:21;4.21;75.64
68511;SHT31;55512;50.102;19.958;2024-01-27T05:24:46;4.20;75.58
68511;SHT31;55512;50.102;19.958;2024-01-27T05:27:24;4.20;75.26
68511;SHT31;55512;50.102;19.958;2024-01-27T05:29:56;4.22;75.15
68511;SHT31;55512;50.102;19.958;2024-01-27T05:33:25;4.24;74.82
68511;SHT31;55512;50.102;19.958;2024-01-27T05:36:04;4.26;74.56
68511;SHT31;55512;50.102;19.958;2024-01-27T05:39:10;4.31;74.27
68511;SHT31;55512;50.102;19.958;2024-01-27T05:42:07;4.27;74.28
68511;SHT31;55512;50.102;19.958;2024-01-27T05:44:54;4.27;74.22
68511;SHT31;55512;50.102;19.958;2024-01-27T05:51:39;4.32;73.92
68511;SHT31;55512;50.102;19.958;2024-01-27T05:54:17;4.33;73.84
68511;SHT31;55512;50.102;19.958;2024-01-27T05:56:59;4.35;73.62
68511;SHT31;55512;50.102;19.958;2024-01-27T05:59:36;4.36;73.52
68511;SHT31;55512;50.102;19.958;2024-01-27T06:02:25;4.36;73.49
68511;SHT31;55512;50.102;19.958;2024-01-27T06:04:57;4.35;73.49
68511;SHT31;55512;50.102;19.958;2024-01-27T06:08:00;4.34;73.40
68511;SHT31;55512;50.102;19.958;2024-01-27T06:10:53;4.36;73.38
68511;SHT31;55512;50.102;19.958;2024-01-27T06:14:06;4.34;73.12
68511;SHT31;55512;50.102;19.958;2024-01-27T06:16:54;4.36;73.12
68511;SHT31;55512;50.102;19.958;2024-01-27T06:19:20;4.38;72.86
68511;SHT31;55512;50.102;19.958;2024-01-27T06:21:45;4.40;72.83
68511;SHT31;55512;50.102;19.958;2024-01-27T06:24:11;4.42;72.66
68511;SHT31;55512;50.102;19.958;2024-01-27T06:26:37;4.41;72.66
68511;SHT31;55512;50.102;19.958;2024-01-27T06:29:03;4.41;72.65
68511;SHT31;55512;50.102;19.958;2024-01-27T06:31:29;4.42;72.49
68511;SHT31;55512;50.102;19.958;2024-01-27T06:33:55;4.42;72.25
68511;SHT31;55512;50.102;19.958;2024-01-27T06:36:21;4.41;72.08
68511;SHT31;55512;50.102;19.958;2024-01-27T06:38:50;4.44;71.84
68511;SHT31;55512;50.102;19.958;2024-01-27T06:41:19;4.46;71.35
68511;SHT31;55512;50.102;19.958;2024-01-27T06:43:45;4.47;70.44
68511;SHT31;55512;50.102;19.958;2024-01-27T06:46:11;4.52;70.23
68511;SHT31;55512;50.102;19.958;2024-01-27T06:48:37;4.54;69.92
68511;SHT31;55512;50.102;19.958;2024-01-27T06:51:23;4.56;69.70
68511;SHT31;55512;50.102;19.958;2024-01-27T06:53:48;4.57;69.56
68511;SHT31;55512;50.102;19.958;2024-01-27T06:56:14;4.59;69.13
68511;SHT31;55512;50.102;19.958;2024-01-27T06:58:39;4.61;69.06
68511;SHT31;55512;50.102;19.958;2024-01-27T07:01:06;4.61;68.78
68511;SHT31;55512;50.102;19.958;2024-01-27T07:03:33;4.63;69.00
68511;SHT31;55512;50.102;19.958;2024-01-27T07:05:59;4.62;69.19
68511;SHT31;55512;50.102;19.958;2024-01-27T07:08:26;4.62;69.08
68511;SHT31;55512;50.102;19.958;2024-01-27T07:10:52;4.59;69.32
68511;SHT31;55512;50.102;19.958;2024-01-27T07:15:55;4.55;69.67
68511;SHT31;55512;50.102;19.958;2024-01-27T07:18:24;4.55;69.76
68511;SHT31;55512;50.102;19.958;2024-01-27T07:20:56;4.54;70.04
68511;SHT31;55512;50.102;19.958;2024-01-27T07:29:31;4.57;69.56
68511;SHT31;55512;50.102;19.958;2024-01-27T07:32:08;4.55;69.90
68511;SHT31;55512;50.102;19.958;2024-01-27T07:34:44;4.54;70.15
68511;SHT31;55512;50.102;19.958;2024-01-27T07:37:11;4.55;70.26
68511;SHT31;55512;50.102;19.958;2024-01-27T07:40:00;4.55;69.94
68511;SHT31;55512;50.102;19.958;2024-01-27T07:42:25;4.58;69.62
68511;SHT31;55512;50.102;19.958;2024-01-27T07:45:41;4.58;68.92
68511;SHT31;55512;50.102;19.958;2024-01-27T07:48:22;4.59;68.78
68511;SHT31;55512;50.102;19.958;2024-01-27T07:51:15;4.62;68.19
68511;SHT31;55512;50.102;19.958;2024-01-27T07:54:09;4.64;67.85
68511;SHT31;55512;50.102;19.958;2024-01-27T07:56:59;4.68;67.04
68511;SHT31;55512;50.102;19.958;2024-01-27T07:59:46;4.77;66.80
68511;SHT31;55512;50.102;19.958;2024-01-27T08:02:59;4.84;66.54
68511;SHT31;55512;50.102;19.958;2024-01-27T08:05:37;4.89;66.10
68511;SHT31;55512;50.102;19.958;2024-01-27T08:08:14;4.96;65.88
68511;SHT31;55512;50.102;19.958;2024-01-27T08:10:47;4.99;65.40
68511;SHT31;55512;50.102;19.958;2024-01-27T08:13:35;5.03;65.24
68511;SHT31;55512;50.102;19.958;2024-01-27T08:16:10;5.04;64.99
68511;SHT31;55512;50.102;19.958;2024-01-27T08:18:47;5.05;64.84
68511;SHT31;55512;50.102;19.958;2024-01-27T08:21:16;5.04;64.80
68511;SHT31;55512;50.102;19.958;2024-01-27T08:23:42;5.04;64.81
68511;SHT31;55512;50.102;19.958;2024-01-27T08:26:18;5.11;64.87
68511;SHT31;55512;50.102;19.958;2024-01-27T08:29:08;5.36;63.39
68511;SHT31;55512;50.102;19.958;2024-01-27T08:31:51;5.40;63.01
68511;SHT31;55512;50.102;19.958;2024-01-27T08:34:23;5.24;63.88
68511;SHT31;55512;50.102;19.958;2024-01-27T08:40:20;5.21;64.63
68511;SHT31;55512;50.102;19.958;2024-01-27T08:42:49;5.18;63.94
68511;SHT31;55512;50.102;19.958;2024-01-27T08:45:21;5.22;64.50
68511;SHT31;55512;50.102;19.958;2024-01-27T08:47:55;5.17;64.32
68511;SHT31;55512;50.102;19.958;2024-01-27T08:50:27;5.11;64.04
68511;SHT31;55512;50.102;19.958;2024-01-27T08:53:30;5.15;64.26
68511;SHT31;55512;50.102;19.958;2024-01-27T08:59:44;5.12;64.32
68511;SHT31;55512;50.102;19.958;2024-01-27T09:02:30;5.07;64.63
68511;SHT31;55512;50.102;19.958;2024-01-27T09:04:57;4.99;65.02
68511;SHT31;55512;50.102;19.958;2024-01-27T09:07:25;4.93;65.66
68511;SHT31;55512;50.102;19.958;2024-01-27T09:09:54;4.85;66.36
68511;SHT31;55512;50.102;19.958;2024-01-27T09:12:23;4.68;67.76
68511;SHT31;55512;50.102;19.958;2024-01-27T09:15:33;4.60;68.65
68511;SHT31;55512;50.102;19.958;2024-01-27T09:18:19;4.76;68.11
68511;SHT31;55512;50.102;19.958;2024-01-27T09:24:25;4.45;70.08
68511;SHT31;55512;50.102;19.958;2024-01-27T09:27:22;4.40;71.16
68511;SHT31;55512;50.102;19.958;2024-01-27T09:29:58;4.28;72.03
68511;SHT31;55512;50.102;19.958;2024-01-27T09:32:32;4.14;73.22
68511;SHT31;55512;50.102;19.958;2024-01-27T09:35:03;4.02;73.83
68511;SHT31;55512;50.102;19.958;2024-01-27T09:37:34;3.92;74.70
68511;SHT31;55512;50.102;19.958;2024-01-27T09:40:00;3.84;75.75
68511;SHT31;55512;50.102;19.958;2024-01-27T09:42:27;3.78;76.20
68511;SHT31;55512;50.102;19.958;2024-01-27T09:44:54;3.68;77.06
68511;SHT31;55512;50.102;19.958;2024-01-27T09:47:27;3.67;77.69
68511;SHT31;55512;50.102;19.958;2024-01-27T09:49:56;3.65;78.18
68511;SHT31;55512;50.102;19.958;2024-01-27T09:55:32;3.60;78.72
68511;SHT31;55512;50.102;19.958;2024-01-27T09:58:21;3.50;79.71
68511;SHT31;55512;50.102;19.958;2024-01-27T10:00:57;3.48;80.24
68511;SHT31;55512;50.102;19.958;2024-01-27T10:03:25;3.47;80.35
68511;SHT31;55512;50.102;19.958;2024-01-27T10:05:58;3.48;80.97
68511;SHT31;55512;50.102;19.958;2024-01-27T10:08:55;3.48;81.51
68511;SHT31;55512;50.102;19.958;2024-01-27T10:11:26;3.45;81.54
68511;SHT31;55512;50.102;19.958;2024-01-27T10:17:25;3.31;81.74
68511;SHT31;55512;50.102;19.958;2024-01-27T10:20:03;3.23;81.76
68511;SHT31;55512;50.102;19.958;2024-01-27T10:22:53;3.17;81.87
68511;SHT31;55512;50.102;19.958;2024-01-27T10:25:25;3.19;82.50
68511;SHT31;55512;50.102;19.958;2024-01-27T10:27:55;3.13;83.10
68511;SHT31;55512;50.102;19.958;2024-01-27T10:30:24;2.99;83.54
68511;SHT31;55512;50.102;19.958;2024-01-27T10:32:55;2.94;83.86
68511;SHT31;55512;50.102;19.958;2024-01-27T10:35:22;2.95;84.05
68511;SHT31;55512;50.102;19.958;2024-01-27T10:38:12;2.97;84.12
68511;SHT31;55512;50.102;19.958;2024-01-27T10:41:18;3.02;84.06
68511;SHT31;55512;50.102;19.958;2024-01-27T10:43:55;3.04;84.08
68511;SHT31;55512;50.102;19.958;2024-01-27T10:46:45;3.08;83.88
68511;SHT31;55512;50.102;19.958;2024-01-27T10:49:42;3.12;83.61
68511;SHT31;55512;50.102;19.958;2024-01-27T10:52:11;3.11;83.16
68511;SHT31;55512;50.102;19.958;2024-01-27T10:55:30;3.16;82.91
68511;SHT31;55512;50.102;19.958;2024-01-27T10:57:56;3.20;82.67
68511;SHT31;55512;50.102;19.958;2024-01-27T11:00:43;3.18;82.47
68511;SHT31;55512;50.102;19.958;2024-01-27T11:03:51;3.22;82.57
68511;SHT31;55512;50.102;19.958;2024-01-27T11:09:56;3.29;82.41
68511;SHT31;55512;50.102;19.958;2024-01-27T11:13:05;3.32;82.40
68511;SHT31;55512;50.102;19.958;2024-01-27T11:15:52;3.41;82.13
68511;SHT31;55512;50.102;19.958;2024-01-27T11:19:06;3.38;82.15
68511;SHT31;55512;50.102;19.958;2024-01-27T11:22:25;3.42;81.82
68511;SHT31;55512;50.102;19.958;2024-01-27T11:25:33;3.47;81.51
68511;SHT31;55512;50.102;19.958;2024-01-27T11:28:30;3.44;81.67
68511;SHT31;55512;50.102;19.958;2024-01-27T11:34:40;3.39;82.24
68511;SHT31;55512;50.102;19.958;2024-01-27T11:37:30;3.38;82.18
68511;SHT31;55512;50.102;19.958;2024-01-27T11:46:05;3.40;82.59
68511;SHT31;55512;50.102;19.958;2024-01-27T11:49:29;3.38;82.79
68511;SHT31;55512;50.102;19.958;2024-01-27T11:52:15;3.40;82.78
68511;SHT31;55512;50.102;19.958;2024-01-27T11:54:53;3.43;82.82
68511;SHT31;55512;50.102;19.958;2024-01-27T11:57:46;3.39;83.02
68511;SHT31;55512;50.102;19.958;2024-01-27T12:00:50;3.36;83.14
68511;SHT31;55512;50.102;19.958;2024-01-27T12:03:22;3.33;83.33
68511;SHT31;55512;50.102;19.958;2024-01-27T12:06:07;3.37;83.39
68511;SHT31;55512;50.102;19.958;2024-01-27T12:08:42;3.45;83.07
68511;SHT31;55512;50.102;19.958;2024-01-27T12:11:14;3.37;83.11
68511;SHT31;55512;50.102;19.958;2024-01-27T12:13:42;3.45;82.87
68511;SHT31;55512;50.102;19.958;2024-01-27T12:16:17;3.33;83.48
68511;SHT31;55512;50.102;19.958;2024-01-27T12:18:45;3.35;83.74
68511;SHT31;55512;50.102;19.958;2024-01-27T12:21:35;3.37;83.88
68511;SHT31;55512;50.102;19.958;2024-01-27T12:24:15;3.32;84.26
68511;SHT31;55512;50.102;19.958;2024-01-27T12:26:46;3.26;84.81
68511;SHT31;55512;50.102;19.958;2024-01-27T12:29:14;3.27;85.30
68511;SHT31;55512;50.102;19.958;2024-01-27T12:31:45;3.28;85.67
68511;SHT31;55512;50.102;19.958;2024-01-27T12:34:11;3.28;85.95
68511;SHT31;55512;50.102;19.958;2024-01-27T12:36:42;3.29;86.06
68511;SHT31;55512;50.102;19.958;2024-01-27T12:39:20;3.27;85.97
68511;SHT31;55512;50.102;19.958;2024-01-27T12:41:46;3.27;85.97
68511;SHT31;55512;50.102;19.958;2024-01-27T12:44:12;3.20;85.81
68511;SHT31;55512;50.102;19.958;2024-01-27T12:46:46;3.16;85.96
68511;SHT31;55512;50.102;19.958;2024-01-27T12:52:10;3.19;86.32
68511;SHT31;55512;50.102;19.958;2024-01-27T12:54:41;3.13;86.45
68511;SHT31;55512;50.102;19.958;2024-01-27T12:57:06;3.08;86.56
68511;SHT31;55512;50.102;19.958;2024-01-27T12:59:55;3.08;86.87
68511;SHT31;55512;50.102;19.958;2024-01-27T13:02:34;3.05;87.20
68511;SHT31;55512;50.102;19.958;2024-01-27T13:05:02;2.99;87.21
68511;SHT31;55512;50.102;19.958;2024-01-27T13:07:49;3.01;87.28
68511;SHT31;55512;50.102;19.958;2024-01-27T13:10:18;3.05;87.38
68511;SHT31;55512;50.102;19.958;2024-01-27T13:12:50;3.02;87.51
68511;SHT31;55512;50.102;19.958;2024-01-27T13:15:18;3.00;87.56
68511;SHT31;55512;50.102;19.958;2024-01-27T13:17:47;2.99;87.66
68511;SHT31;55512;50.102;19.958;2024-01-27T13:23:06;3.00;87.88
68511;SHT31;55512;50.102;19.958;2024-01-27T13:25:51;2.98;87.93
68511;SHT31;55512;50.102;19.958;2024-01-27T13:28:17;2.98;87.97
68511;SHT31;55512;50.102;19.958;2024-01-27T13:30:43;2.94;87.99
68511;SHT31;55512;50.102;19.958;2024-01-27T13:33:13;2.97;88.06
68511;SHT31;55512;50.102;19.958;2024-01-27T13:35:40;3.00;88.05
68511;SHT31;55512;50.102;19.958;2024-01-27T13:38:38;3.00;87.92
68511;SHT31;55512;50.102;19.958;2024-01-27T13:43:49;3.05;88.13
68511;SHT31;55512;50.102;19.958;2024-01-27T13:46:33;3.05;88.09
68511;SHT31;55512;50.102;19.958;2024-01-27T13:52:32;3.09;87.90
68511;SHT31;55512;50.102;19.958;2024-01-27T13:55:11;3.09;87.99
68511;SHT31;55512;50.102;19.958;2024-01-27T13:58:04;3.06;88.00
68511;SHT31;55512;50.102;19.958;2024-01-27T14:00:30;3.09;87.99
68511;SHT31;55512;50.102;19.958;2024-01-27T14:03:01;3.11;88.01
68511;SHT31;55512;50.102;19.958;2024-01-27T14:05:29;3.15;88.00
68511;SHT31;55512;50.102;19.958;2024-01-27T14:08:17;3.16;87.97
68511;SHT31;55512;50.102;19.958;2024-01-27T14:13:56;3.17;87.89
68511;SHT31;55512;50.102;19.958;2024-01-27T14:19:21;3.21;87.81
68511;SHT31;55512;50.102;19.958;2024-01-27T14:21:47;3.20;87.80
68511;SHT31;55512;50.102;19.958;2024-01-27T14:24:32;3.19;87.85
68511;SHT31;55512;50.102;19.958;2024-01-27T14:26:58;3.15;87.84
68511;SHT31;55512;50.102;19.958;2024-01-27T14:29:30;3.15;87.81
68511;SHT31;55512;50.102;19.958;2024-01-27T14:32:04;3.15;87.81
68511;SHT31;55512;50.102;19.958;2024-01-27T14:34:50;3.16;87.85
68511;SHT31;55512;50.102;19.958;2024-01-27T14:37:16;3.13;87.85
68511;SHT31;55512;50.102;19.958;2024-01-27T14:39:48;3.13;87.81
68511;SHT31;55512;50.102;19.958;2024-01-27T14:42:21;3.13;87.81
68511;SHT31;55512;50.102;19.958;2024-01-27T14:45:20;3.14;87.97
68511;SHT31;55512;50.102;19.958;2024-01-27T14:47:56;3.13;88.00
68511;SHT31;55512;50.102;19.958;2024-01-27T14:50:24;3.13;88.02
68511;SHT31;55512;50.102;19.958;2024-01-27T14:53:13;3.12;88.08
68511;SHT31;55512;50.102;19.958;2024-01-27T15:01:21;3.08;88.10
68511;SHT31;55512;50.102;19.958;2024-01-27T15:06:53;3.07;88.06
68511;SHT31;55512;50.102;19.958;2024-01-27T15:09:26;3.05;88.09
68511;SHT31;55512;50.102;19.958;2024-01-27T15:11:56;3.07;88.00
68511;SHT31;55512;50.102;19.958;2024-01-27T15:14:28;3.10;88.07
68511;SHT31;55512;50.102;19.958;2024-01-27T15:17:00;3.11;88.10
68511;SHT31;55512;50.102;19.958;2024-01-27T15:19:40;3.13;88.10
68511;SHT31;55512;50.102;19.958;2024-01-27T15:22:27;3.13;88.05
68511;SHT31;55512;50.102;19.958;2024-01-27T15:25:34;3.14;88.00
68511;SHT31;55512;50.102;19.958;2024-01-27T15:28:24;3.16;88.01
68511;SHT31;55512;50.102;19.958;2024-01-27T15:30:50;3.18;88.05
68511;SHT31;55512;50.102;19.958;2024-01-27T15:33:26;3.17;88.05
68511;SHT31;55512;50.102;19.958;2024-01-27T15:36:05;3.18;88.00
68511;SHT31;55512;50.102;19.958;2024-01-27T15:38:39;3.20;88.03
68511;SHT31;55512;50.102;19.958;2024-01-27T15:41:05;3.22;88.00
68511;SHT31;55512;50.102;19.958;2024-01-27T15:43:33;3.22;87.98
68511;SHT31;55512;50.102;19.958;2024-01-27T15:46:13;3.24;87.87
68511;SHT31;55512;50.102;19.958;2024-01-27T15:48:42;3.27;87.81
68511;SHT31;55512;50.102;19.958;2024-01-27T15:51:38;3.27;87.75
68511;SHT31;55512;50.102;19.958;2024-01-27T15:54:29;3.28;87.60
68511;SHT31;55512;50.102;19.958;2024-01-27T15:57:21;3.29;87.51
68511;SHT31;55512;50.102;19.958;2024-01-27T16:00:21;3.31;87.43
68511;SHT31;55512;50.102;19.958;2024-01-27T16:03:16;3.31;87.36
68511;SHT31;55512;50.102;19.958;2024-01-27T16:05:56;3.31;87.30
68511;SHT31;55512;50.102;19.958;2024-01-27T16:08:22;3.31;87.28
68511;SHT31;55512;50.102;19.958;2024-01-27T16:10:48;3.30;87.23
68511;SHT31;55512;50.102;19.958;2024-01-27T16:13:19;3.31;87.20
68511;SHT31;55512;50.102;19.958;2024-01-27T16:16:14;3.31;87.20
68511;SHT31;55512;50.102;19.958;2024-01-27T16:18:52;3.30;87.15
68511;SHT31;55512;50.102;19.958;2024-01-27T16:21:46;3.30;87.13
68511;SHT31;55512;50.102;19.958;2024-01-27T16:24:19;3.29;87.20
68511;SHT31;55512;50.102;19.958;2024-01-27T16:26:57;3.30;87.20
68511;SHT31;55512;50.102;19.958;2024-01-27T16:30:01;3.30;87.20
68511;SHT31;55512;50.102;19.958;2024-01-27T16:32:35;3.31;87.20
68511;SHT31;55512;50.102;19.958;2024-01-27T16:35:07;3.31;87.20
68511;SHT31;55512;50.102;19.958;2024-01-27T16:38:00;3.33;87.24
68511;SHT31;55512;50.102;19.958;2024-01-27T16:40:46;3.34;87.20
68511;SHT31;55512;50.102;19.958;2024-01-27T16:43:15;3.34;87.20
68511;SHT31;55512;50.102;19.958;2024-01-27T16:45:46;3.35;87.21
68511;SHT31;55512;50.102;19.958;2024-01-27T16:48:16;3.35;87.24
68511;SHT31;55512;50.102;19.958;2024-01-27T16:50:55;3.35;87.28
68511;SHT31;55512;50.102;19.958;2024-01-27T16:54:10;3.34;87.26
68511;SHT31;55512;50.102;19.958;2024-01-27T16:56:53;3.40;87.10
68511;SHT31;55512;50.102;19.958;2024-01-27T16:59:29;3.60;86.49
68511;SHT31;55512;50.102;19.958;2024-01-27T17:02:05;3.62;86.34
68511;SHT31;55512;50.102;19.958;2024-01-27T17:04:36;3.65;86.20
68511;SHT31;55512;50.102;19.958;2024-01-27T17:07:07;3.65;86.18
68511;SHT31;55512;50.102;19.958;2024-01-27T17:09:47;3.53;86.57
68511;SHT31;55512;50.102;19.958;2024-01-27T17:12:30;3.65;86.16
68511;SHT31;55512;50.102;19.958;2024-01-27T17:15:01;3.42;86.84
68511;SHT31;55512;50.102;19.958;2024-01-27T17:17:33;3.38;87.11
68511;SHT31;55512;50.102;19.958;2024-01-27T17:20:11;3.38;87.20
68511;SHT31;55512;50.102;19.958;2024-01-27T17:23:13;3.37;87.20
68511;SHT31;55512;50.102;19.958;2024-01-27T17:25:55;3.36;87.29
68511;SHT31;55512;50.102;19.958;2024-01-27T17:35:15;3.33;87.53
68511;SHT31;55512;50.102;19.958;2024-01-27T17:38:25;3.34;87.62
68511;SHT31;55512;50.102;19.958;2024-01-27T17:41:25;3.34;87.73
68511;SHT31;55512;50.102;19.958;2024-01-27T17:44:11;3.34;87.76
68511;SHT31;55512;50.102;19.958;2024-01-27T17:47:29;3.36;87.85
68511;SHT31;55512;50.102;19.958;2024-01-27T17:50:01;3.36;87.89
68511;SHT31;55512;50.102;19.958;2024-01-27T17:52:38;3.35;87.99
68511;SHT31;55512;50.102;19.958;2024-01-27T17:55:27;3.36;88.02
68511;SHT31;55512;50.102;19.958;2024-01-27T17:58:25;3.38;88.10
68511;SHT31;55512;50.102;19.958;2024-01-27T18:01:00;3.39;88.14
68511;SHT31;55512;50.102;19.958;2024-01-27T18:03:55;3.39;88.20
68511;SHT31;55512;50.102;19.958;2024-01-27T18:06:20;3.57;87.72
68511;SHT31;55512;50.102;19.958;2024-01-27T18:08:58;3.73;87.22
68511;SHT31;55512;50.102;19.958;2024-01-27T18:11:44;3.75;87.09
68511;SHT31;55512;50.102;19.958;2024-01-27T18:14:17;3.51;87.77
68511;SHT31;55512;50.102;19.958;2024-01-27T18:17:06;3.46;88.03
68511;SHT31;55512;50.102;19.958;2024-01-27T18:26:15;3.45;88.04
68511;SHT31;55512;50.102;19.958;2024-01-27T18:28:51;3.43;87.97
68511;SHT31;55512;50.102;19.958;2024-01-27T18:31:43;3.41;87.91
68511;SHT31;55512;50.102;19.958;2024-01-27T18:34:24;3.40;87.83
68511;SHT31;55512;50.102;19.958;2024-01-27T18:36:54;3.40;87.79
68511;SHT31;55512;50.102;19.958;2024-01-27T18:39:31;3.41;87.70
68511;SHT31;55512;50.102;19.958;2024-01-27T18:41:57;3.43;87.68
68511;SHT31;55512;50.102;19.958;2024-01-27T18:44:25;3.69;86.97
68511;SHT31;55512;50.102;19.958;2024-01-27T18:47:03;3.77;86.47
68511;SHT31;55512;50.102;19.958;2024-01-27T18:49:37;3.81;86.27
68511;SHT31;55512;50.102;19.958;2024-01-27T18:52:17;3.84;86.14
68511;SHT31;55512;50.102;19.958;2024-01-27T18:54:46;3.85;85.97